sensor_id;sensor_type;location;lat;lon;timestamp;P1;durP1;ratioP1;P2;durP2;ratioP2
44068;SDS011;29738;51.234;5.484;2022-12-26T00:00:39;13.18;;;6.50;;
44068;SDS011;29738;51.234;5.484;2022-12-26T00:03:07;12.85;;;7.25;;
44068;SDS011;29738;51.234;5.484;2022-12-26T00:05:36;11.10;;;6.07;;
44068;SDS011;29738;51.234;5.484;2022-12-26T00:08:02;11.45;;;5.70;;
44068;SDS011;29738;51.234;5.484;2022-12-26T00:10:32;11.60;;;6.03;;
44068;SDS011;29738;51.234;5.484;2022-12-26T00:12:57;11.02;;;5.50;;
44068;SDS011;29738;51.234;5.484;2022-12-26T00:15:23;12.02;;;5.03;;
44068;SDS011;29738;51.234;5.484;2022-12-26T00:17:52;11.25;;;5.40;;
44068;SDS011;29738;51.234;5.484;2022-12-26T00:20:18;10.88;;;5.00;;
44068;SDS011;29738;51.234;5.484;2022-12-26T00:22:44;9.30;;;4.88;;
44068;SDS011;29738;51.234;5.484;2022-12-26T00:25:09;8.48;;;4.38;;
44068;SDS011;29738;51.234;5.484;2022-12-26T00:27:35;10.57;;;5.25;;
44068;SDS011;29738;51.234;5.484;2022-12-26T00:30:01;9.32;;;4.45;;
44068;SDS011;29738;51.234;5.484;2022-12-26T00:32:27;8.38;;;4.35;;
44068;SDS011;29738;51.234;5.484;2022-12-26T00:34:53;8.18;;;3.83;;
44068;SDS011;29738;51.234;5.484;2022-12-26T00:37:19;8.32;;;4.53;;
44068;SDS011;29738;51.234;5.484;2022-12-26T00:39:44;8.60;;;3.85;;
44068;SDS011;29738;51.234;5.484;2022-12-26T00:42:10;9.10;;;4.28;;
44068;SDS011;29738;51.234;5.484;2022-12-26T00:44:36;7.75;;;4.18;;
44068;SDS011;29738;51.234;5.484;2022-12-26T00:47:01;7.22;;;3.60;;
44068;SDS011;29738;51.234;5.484;2022-12-26T00:49:27;8.38;;;3.50;;
44068;SDS011;29738;51.234;5.484;2022-12-26T00:51:53;5.82;;;2.97;;
44068;SDS011;29738;51.234;5.484;2022-12-26T00:54:19;6.03;;;2.88;;
44068;SDS011;29738;51.234;5.484;2022-12-26T00:56:44;7.30;;;3.50;;
44068;SDS011;29738;51.234;5.484;2022-12-26T00:59:10;6.95;;;3.25;;
44068;SDS011;29738;51.234;5.484;2022-12-26T01:01:36;7.35;;;3.00;;
44068;SDS011;29738;51.234;5.484;2022-12-26T01:04:02;6.47;;;3.28;;
44068;SDS011;29738;51.234;5.484;2022-12-26T01:06:28;6.95;;;3.10;;
44068;SDS011;29738;51.234;5.484;2022-12-26T01:08:55;7.25;;;3.05;;
44068;SDS011;29738;51.234;5.484;2022-12-26T01:11:20;5.18;;;2.38;;
44068;SDS011;29738;51.234;5.484;2022-12-26T01:14:23;7.82;;;2.90;;
44068;SDS011;29738;51.234;5.484;2022-12-26T01:16:48;7.50;;;3.33;;
44068;SDS011;29738;51.234;5.484;2022-12-26T01:19:14;7.03;;;3.13;;
44068;SDS011;29738;51.234;5.484;2022-12-26T01:21:40;8.43;;;3.70;;
44068;SDS011;29738;51.234;5.484;2022-12-26T01:24:07;9.75;;;3.90;;
44068;SDS011;29738;51.234;5.484;2022-12-26T01:26:32;9.02;;;4.03;;
44068;SDS011;29738;51.234;5.484;2022-12-26T01:28:58;9.38;;;4.47;;
44068;SDS011;29738;51.234;5.484;2022-12-26T01:31:24;10.93;;;4.65;;
44068;SDS011;29738;51.234;5.484;2022-12-26T01:33:50;9.90;;;3.63;;
44068;SDS011;29738;51.234;5.484;2022-12-26T01:36:16;9.20;;;4.90;;
44068;SDS011;29738;51.234;5.484;2022-12-26T01:38:42;8.90;;;4.43;;
44068;SDS011;29738;51.234;5.484;2022-12-26T01:41:08;9.15;;;4.50;;
44068;SDS011;29738;51.234;5.484;2022-12-26T01:43:48;9.80;;;4.50;;
44068;SDS011;29738;51.234;5.484;2022-12-26T01:46:18;9.32;;;3.40;;
44068;SDS011;29738;51.234;5.484;2022-12-26T01:48:48;8.32;;;3.63;;
44068;SDS011;29738;51.234;5.484;2022-12-26T01:51:15;8.55;;;3.85;;
44068;SDS011;29738;51.234;5.484;2022-12-26T01:53:46;8.88;;;4.45;;
44068;SDS011;29738;51.234;5.484;2022-12-26T01:56:19;8.18;;;3.92;;
44068;SDS011;29738;51.234;5.484;2022-12-26T01:58:49;7.25;;;3.72;;
44068;SDS011;29738;51.234;5.484;2022-12-26T02:01:19;7.88;;;3.08;;
44068;SDS011;29738;51.234;5.484;2022-12-26T02:03:48;8.57;;;3.25;;
44068;SDS011;29738;51.234;5.484;2022-12-26T02:06:32;8.48;;;4.13;;
44068;SDS011;29738;51.234;5.484;2022-12-26T02:08:59;10.38;;;4.65;;
44068;SDS011;29738;51.234;5.484;2022-12-26T02:11:31;11.13;;;5.35;;
44068;SDS011;29738;51.234;5.484;2022-12-26T02:14:04;7.68;;;4.40;;
44068;SDS011;29738;51.234;5.484;2022-12-26T02:16:31;7.68;;;3.63;;
44068;SDS011;29738;51.234;5.484;2022-12-26T02:18:58;7.07;;;3.25;;
44068;SDS011;29738;51.234;5.484;2022-12-26T02:29:42;8.10;;;3.88;;
44068;SDS011;29738;51.234;5.484;2022-12-26T02:34:59;7.47;;;3.83;;
44068;SDS011;29738;51.234;5.484;2022-12-26T02:37:43;10.10;;;3.65;;
44068;SDS011;29738;51.234;5.484;2022-12-26T02:43:08;9.85;;;4.80;;
44068;SDS011;29738;51.234;5.484;2022-12-26T02:45:50;8.82;;;4.97;;
44068;SDS011;29738;51.234;5.484;2022-12-26T02:57:58;9.75;;;4.50;;
44068;SDS011;29738;51.234;5.484;2022-12-26T03:00:48;8.80;;;4.43;;
44068;SDS011;29738;51.234;5.484;2022-12-26T03:03:36;10.40;;;4.60;;
44068;SDS011;29738;51.234;5.484;2022-12-26T03:06:26;8.77;;;4.30;;
44068;SDS011;29738;51.234;5.484;2022-12-26T03:15:03;7.10;;;3.38;;
44068;SDS011;29738;51.234;5.484;2022-12-26T03:17:37;8.32;;;3.80;;
44068;SDS011;29738;51.234;5.484;2022-12-26T03:20:05;9.15;;;4.72;;
44068;SDS011;29738;51.234;5.484;2022-12-26T03:22:35;8.75;;;3.97;;
44068;SDS011;29738;51.234;5.484;2022-12-26T03:28:06;8.32;;;3.63;;
44068;SDS011;29738;51.234;5.484;2022-12-26T03:30:32;7.70;;;3.25;;
44068;SDS011;29738;51.234;5.484;2022-12-26T03:33:16;8.93;;;3.78;;
44068;SDS011;29738;51.234;5.484;2022-12-26T03:36:24;7.82;;;3.78;;
44068;SDS011;29738;51.234;5.484;2022-12-26T03:42:33;10.85;;;5.78;;
44068;SDS011;29738;51.234;5.484;2022-12-26T03:48:20;13.38;;;5.57;;
44068;SDS011;29738;51.234;5.484;2022-12-26T03:51:22;13.40;;;6.70;;
44068;SDS011;29738;51.234;5.484;2022-12-26T03:54:15;15.27;;;6.67;;
44068;SDS011;29738;51.234;5.484;2022-12-26T03:57:09;11.90;;;6.07;;
44068;SDS011;29738;51.234;5.484;2022-12-26T04:00:07;13.32;;;6.15;;
44068;SDS011;29738;51.234;5.484;2022-12-26T04:02:54;12.68;;;5.97;;
44068;SDS011;29738;51.234;5.484;2022-12-26T04:05:48;14.45;;;6.00;;
44068;SDS011;29738;51.234;5.484;2022-12-26T04:11:31;13.60;;;5.53;;
44068;SDS011;29738;51.234;5.484;2022-12-26T04:20:15;14.63;;;6.50;;
44068;SDS011;29738;51.234;5.484;2022-12-26T04:23:21;13.80;;;5.57;;
44068;SDS011;29738;51.234;5.484;2022-12-26T04:26:27;9.30;;;4.35;;
44068;SDS011;29738;51.234;5.484;2022-12-26T04:29:21;11.32;;;4.65;;
44068;SDS011;29738;51.234;5.484;2022-12-26T04:32:08;10.50;;;5.18;;
44068;SDS011;29738;51.234;5.484;2022-12-26T04:35:03;10.07;;;4.13;;
44068;SDS011;29738;51.234;5.484;2022-12-26T04:37:54;9.98;;;4.43;;
44068;SDS011;29738;51.234;5.484;2022-12-26T04:40:42;10.00;;;4.28;;
44068;SDS011;29738;51.234;5.484;2022-12-26T04:43:31;7.43;;;3.58;;
44068;SDS011;29738;51.234;5.484;2022-12-26T04:46:17;8.73;;;3.70;;
44068;SDS011;29738;51.234;5.484;2022-12-26T04:48:47;7.13;;;3.75;;
44068;SDS011;29738;51.234;5.484;2022-12-26T04:51:34;7.40;;;3.25;;
44068;SDS011;29738;51.234;5.484;2022-12-26T04:54:00;8.25;;;3.60;;
44068;SDS011;29738;51.234;5.484;2022-12-26T04:56:26;6.25;;;3.00;;
44068;SDS011;29738;51.234;5.484;2022-12-26T04:58:52;6.95;;;3.38;;
44068;SDS011;29738;51.234;5.484;2022-12-26T05:01:17;8.13;;;2.78;;
44068;SDS011;29738;51.234;5.484;2022-12-26T05:04:02;7.00;;;3.00;;
44068;SDS011;29738;51.234;5.484;2022-12-26T05:06:46;6.88;;;3.38;;
44068;SDS011;29738;51.234;5.484;2022-12-26T05:09:31;8.93;;;3.75;;
44068;SDS011;29738;51.234;5.484;2022-12-26T05:12:03;8.05;;;3.15;;
44068;SDS011;29738;51.234;5.484;2022-12-26T05:14:34;8.05;;;3.40;;
44068;SDS011;29738;51.234;5.484;2022-12-26T05:17:00;8.18;;;3.78;;
44068;SDS011;29738;51.234;5.484;2022-12-26T05:19:45;7.32;;;2.97;;
44068;SDS011;29738;51.234;5.484;2022-12-26T05:22:31;8.18;;;3.30;;
44068;SDS011;29738;51.234;5.484;2022-12-26T05:25:22;4.97;;;2.53;;
44068;SDS011;29738;51.234;5.484;2022-12-26T05:28:09;6.63;;;2.60;;
44068;SDS011;29738;51.234;5.484;2022-12-26T05:30:54;5.95;;;2.85;;
44068;SDS011;29738;51.234;5.484;2022-12-26T05:33:20;6.30;;;2.60;;
44068;SDS011;29738;51.234;5.484;2022-12-26T05:36:04;10.02;;;4.63;;
44068;SDS011;29738;51.234;5.484;2022-12-26T05:38:30;7.70;;;4.22;;
44068;SDS011;29738;51.234;5.484;2022-12-26T05:40:56;8.20;;;5.45;;
44068;SDS011;29738;51.234;5.484;2022-12-26T05:43:22;5.88;;;3.00;;
44068;SDS011;29738;51.234;5.484;2022-12-26T05:45:48;7.05;;;3.35;;
44068;SDS011;29738;51.234;5.484;2022-12-26T05:48:13;10.80;;;7.25;;
44068;SDS011;29738;51.234;5.484;2022-12-26T05:50:39;9.15;;;5.80;;
44068;SDS011;29738;51.234;5.484;2022-12-26T05:53:05;6.25;;;3.20;;
44068;SDS011;29738;51.234;5.484;2022-12-26T05:55:30;5.95;;;3.55;;
44068;SDS011;29738;51.234;5.484;2022-12-26T05:57:58;8.95;;;2.83;;
44068;SDS011;29738;51.234;5.484;2022-12-26T06:00:24;7.10;;;3.40;;
44068;SDS011;29738;51.234;5.484;2022-12-26T06:02:49;6.22;;;2.83;;
44068;SDS011;29738;51.234;5.484;2022-12-26T06:05:15;8.55;;;4.00;;
44068;SDS011;29738;51.234;5.484;2022-12-26T06:07:41;6.05;;;2.65;;
44068;SDS011;29738;51.234;5.484;2022-12-26T06:10:07;8.27;;;4.55;;
44068;SDS011;29738;51.234;5.484;2022-12-26T06:12:33;22.85;;;8.95;;
44068;SDS011;29738;51.234;5.484;2022-12-26T06:14:59;20.17;;;10.30;;
44068;SDS011;29738;51.234;5.484;2022-12-26T06:17:25;10.18;;;5.88;;
44068;SDS011;29738;51.234;5.484;2022-12-26T06:19:51;5.50;;;2.90;;
44068;SDS011;29738;51.234;5.484;2022-12-26T06:22:16;6.75;;;3.35;;
44068;SDS011;29738;51.234;5.484;2022-12-26T06:24:42;6.35;;;2.83;;
44068;SDS011;29738;51.234;5.484;2022-12-26T06:27:08;7.30;;;3.03;;
44068;SDS011;29738;51.234;5.484;2022-12-26T06:29:34;5.97;;;2.65;;
44068;SDS011;29738;51.234;5.484;2022-12-26T06:31:59;7.65;;;3.42;;
44068;SDS011;29738;51.234;5.484;2022-12-26T06:34:26;7.53;;;3.63;;
44068;SDS011;29738;51.234;5.484;2022-12-26T06:36:52;6.60;;;2.90;;
44068;SDS011;29738;51.234;5.484;2022-12-26T06:39:19;6.97;;;3.17;;
44068;SDS011;29738;51.234;5.484;2022-12-26T06:41:45;7.65;;;3.55;;
44068;SDS011;29738;51.234;5.484;2022-12-26T06:44:11;8.77;;;3.00;;
44068;SDS011;29738;51.234;5.484;2022-12-26T06:46:37;6.53;;;2.83;;
44068;SDS011;29738;51.234;5.484;2022-12-26T06:49:03;6.25;;;3.17;;
44068;SDS011;29738;51.234;5.484;2022-12-26T06:51:30;6.70;;;3.15;;
44068;SDS011;29738;51.234;5.484;2022-12-26T06:53:57;5.15;;;2.10;;
44068;SDS011;29738;51.234;5.484;2022-12-26T06:56:26;7.88;;;3.47;;
44068;SDS011;29738;51.234;5.484;2022-12-26T06:59:03;6.07;;;2.58;;
44068;SDS011;29738;51.234;5.484;2022-12-26T07:01:30;5.90;;;2.45;;
44068;SDS011;29738;51.234;5.484;2022-12-26T07:03:57;6.82;;;3.28;;
44068;SDS011;29738;51.234;5.484;2022-12-26T07:06:29;5.72;;;2.30;;
44068;SDS011;29738;51.234;5.484;2022-12-26T07:08:56;9.32;;;2.78;;
44068;SDS011;29738;51.234;5.484;2022-12-26T07:11:25;5.40;;;2.80;;
44068;SDS011;29738;51.234;5.484;2022-12-26T07:13:53;5.25;;;2.25;;
44068;SDS011;29738;51.234;5.484;2022-12-26T07:16:20;5.53;;;2.90;;
44068;SDS011;29738;51.234;5.484;2022-12-26T07:18:46;5.43;;;1.80;;
44068;SDS011;29738;51.234;5.484;2022-12-26T07:21:12;6.97;;;3.00;;
44068;SDS011;29738;51.234;5.484;2022-12-26T07:23:39;5.68;;;2.40;;
44068;SDS011;29738;51.234;5.484;2022-12-26T07:26:05;5.15;;;2.20;;
44068;SDS011;29738;51.234;5.484;2022-12-26T07:28:31;6.00;;;2.58;;
44068;SDS011;29738;51.234;5.484;2022-12-26T07:30:57;5.43;;;2.30;;
44068;SDS011;29738;51.234;5.484;2022-12-26T07:33:24;5.63;;;2.00;;
44068;SDS011;29738;51.234;5.484;2022-12-26T07:35:51;6.13;;;2.30;;
44068;SDS011;29738;51.234;5.484;2022-12-26T07:38:17;5.53;;;2.20;;
44068;SDS011;29738;51.234;5.484;2022-12-26T07:40:43;7.60;;;3.08;;
44068;SDS011;29738;51.234;5.484;2022-12-26T07:43:09;6.40;;;3.00;;
44068;SDS011;29738;51.234;5.484;2022-12-26T07:45:35;6.68;;;2.92;;
44068;SDS011;29738;51.234;5.484;2022-12-26T07:48:01;6.50;;;3.20;;
44068;SDS011;29738;51.234;5.484;2022-12-26T07:50:27;10.68;;;3.72;;
44068;SDS011;29738;51.234;5.484;2022-12-26T07:52:53;7.88;;;3.00;;
44068;SDS011;29738;51.234;5.484;2022-12-26T07:55:19;5.13;;;2.00;;
44068;SDS011;29738;51.234;5.484;2022-12-26T07:57:49;7.78;;;3.00;;
44068;SDS011;29738;51.234;5.484;2022-12-26T08:00:16;7.07;;;3.30;;
44068;SDS011;29738;51.234;5.484;2022-12-26T08:02:43;6.85;;;4.28;;
44068;SDS011;29738;51.234;5.484;2022-12-26T08:05:11;9.55;;;6.18;;
44068;SDS011;29738;51.234;5.484;2022-12-26T08:07:37;6.25;;;3.55;;
44068;SDS011;29738;51.234;5.484;2022-12-26T08:10:03;7.18;;;3.03;;
44068;SDS011;29738;51.234;5.484;2022-12-26T08:12:31;6.07;;;3.92;;
44068;SDS011;29738;51.234;5.484;2022-12-26T08:14:57;8.32;;;2.90;;
44068;SDS011;29738;51.234;5.484;2022-12-26T08:17:23;5.30;;;2.55;;
44068;SDS011;29738;51.234;5.484;2022-12-26T08:19:49;5.22;;;2.30;;
44068;SDS011;29738;51.234;5.484;2022-12-26T08:22:14;9.07;;;4.80;;
44068;SDS011;29738;51.234;5.484;2022-12-26T08:24:40;6.38;;;3.30;;
44068;SDS011;29738;51.234;5.484;2022-12-26T08:27:06;4.32;;;2.03;;
44068;SDS011;29738;51.234;5.484;2022-12-26T08:29:32;4.97;;;1.95;;
44068;SDS011;29738;51.234;5.484;2022-12-26T08:31:58;6.35;;;2.05;;
44068;SDS011;29738;51.234;5.484;2022-12-26T08:34:23;4.20;;;1.65;;
44068;SDS011;29738;51.234;5.484;2022-12-26T08:36:49;4.55;;;1.85;;
44068;SDS011;29738;51.234;5.484;2022-12-26T08:39:16;4.50;;;1.58;;
44068;SDS011;29738;51.234;5.484;2022-12-26T08:41:42;3.53;;;1.70;;
44068;SDS011;29738;51.234;5.484;2022-12-26T08:44:08;13.40;;;6.47;;
44068;SDS011;29738;51.234;5.484;2022-12-26T08:46:35;15.80;;;8.50;;
44068;SDS011;29738;51.234;5.484;2022-12-26T08:49:01;17.55;;;7.55;;
44068;SDS011;29738;51.234;5.484;2022-12-26T08:51:27;11.52;;;6.85;;
44068;SDS011;29738;51.234;5.484;2022-12-26T08:53:53;8.23;;;4.90;;
44068;SDS011;29738;51.234;5.484;2022-12-26T08:56:23;6.68;;;4.05;;
44068;SDS011;29738;51.234;5.484;2022-12-26T08:58:50;5.50;;;3.05;;
44068;SDS011;29738;51.234;5.484;2022-12-26T09:01:21;7.78;;;4.78;;
44068;SDS011;29738;51.234;5.484;2022-12-26T09:03:51;5.72;;;3.05;;
44068;SDS011;29738;51.234;5.484;2022-12-26T09:06:18;4.22;;;1.60;;
44068;SDS011;29738;51.234;5.484;2022-12-26T09:08:44;6.47;;;2.53;;
44068;SDS011;29738;51.234;5.484;2022-12-26T09:11:11;5.90;;;2.47;;
44068;SDS011;29738;51.234;5.484;2022-12-26T09:13:38;4.47;;;2.03;;
44068;SDS011;29738;51.234;5.484;2022-12-26T09:16:09;5.07;;;1.40;;
44068;SDS011;29738;51.234;5.484;2022-12-26T09:18:35;5.85;;;1.33;;
44068;SDS011;29738;51.234;5.484;2022-12-26T09:21:02;3.90;;;1.60;;
44068;SDS011;29738;51.234;5.484;2022-12-26T09:23:29;6.05;;;1.30;;
44068;SDS011;29738;51.234;5.484;2022-12-26T09:26:01;7.55;;;1.65;;
44068;SDS011;29738;51.234;5.484;2022-12-26T09:28:36;3.17;;;1.20;;
44068;SDS011;29738;51.234;5.484;2022-12-26T09:31:09;3.42;;;1.35;;
44068;SDS011;29738;51.234;5.484;2022-12-26T09:33:44;3.63;;;1.53;;
44068;SDS011;29738;51.234;5.484;2022-12-26T09:36:22;4.72;;;1.48;;
44068;SDS011;29738;51.234;5.484;2022-12-26T09:38:51;3.13;;;1.27;;
44068;SDS011;29738;51.234;5.484;2022-12-26T09:44:22;3.13;;;1.02;;
44068;SDS011;29738;51.234;5.484;2022-12-26T09:49:35;9.25;;;3.22;;
44068;SDS011;29738;51.234;5.484;2022-12-26T09:52:10;22.58;;;14.80;;
44068;SDS011;29738;51.234;5.484;2022-12-26T09:54:46;31.52;;;16.77;;
44068;SDS011;29738;51.234;5.484;2022-12-26T09:57:16;13.98;;;7.90;;
44068;SDS011;29738;51.234;5.484;2022-12-26T09:59:51;18.48;;;13.57;;
44068;SDS011;29738;51.234;5.484;2022-12-26T10:02:22;20.75;;;15.68;;
44068;SDS011;29738;51.234;5.484;2022-12-26T10:04:49;9.60;;;6.05;;
44068;SDS011;29738;51.234;5.484;2022-12-26T10:07:31;6.47;;;3.63;;
44068;SDS011;29738;51.234;5.484;2022-12-26T10:15:36;4.00;;;1.90;;
44068;SDS011;29738;51.234;5.484;2022-12-26T10:21:04;4.60;;;1.52;;
44068;SDS011;29738;51.234;5.484;2022-12-26T10:23:53;6.80;;;2.55;;
44068;SDS011;29738;51.234;5.484;2022-12-26T10:26:41;3.35;;;1.40;;
44068;SDS011;29738;51.234;5.484;2022-12-26T10:29:19;4.40;;;1.60;;
44068;SDS011;29738;51.234;5.484;2022-12-26T10:31:54;4.05;;;1.35;;
44068;SDS011;29738;51.234;5.484;2022-12-26T10:34:28;3.80;;;1.42;;
44068;SDS011;29738;51.234;5.484;2022-12-26T10:37:03;5.07;;;1.45;;
44068;SDS011;29738;51.234;5.484;2022-12-26T10:40:04;4.95;;;1.40;;
44068;SDS011;29738;51.234;5.484;2022-12-26T10:42:44;6.63;;;2.28;;
44068;SDS011;29738;51.234;5.484;2022-12-26T10:47:51;8.95;;;4.10;;
44068;SDS011;29738;51.234;5.484;2022-12-26T10:50:22;21.63;;;17.08;;
44068;SDS011;29738;51.234;5.484;2022-12-26T10:52:56;22.08;;;18.52;;
44068;SDS011;29738;51.234;5.484;2022-12-26T10:55:31;47.28;;;35.30;;
44068;SDS011;29738;51.234;5.484;2022-12-26T10:57:59;11.27;;;9.23;;
44068;SDS011;29738;51.234;5.484;2022-12-26T11:00:41;18.88;;;15.75;;
44068;SDS011;29738;51.234;5.484;2022-12-26T11:03:11;11.25;;;7.50;;
44068;SDS011;29738;51.234;5.484;2022-12-26T11:05:49;10.85;;;8.38;;
44068;SDS011;29738;51.234;5.484;2022-12-26T11:08:22;6.85;;;4.30;;
44068;SDS011;29738;51.234;5.484;2022-12-26T11:11:31;6.18;;;2.90;;
44068;SDS011;29738;51.234;5.484;2022-12-26T11:17:24;4.30;;;1.73;;
44068;SDS011;29738;51.234;5.484;2022-12-26T11:20:36;4.20;;;1.67;;
44068;SDS011;29738;51.234;5.484;2022-12-26T11:22:52;4.00;;;1.65;;
44068;SDS011;29738;51.234;5.484;2022-12-26T11:25:23;3.65;;;1.58;;
44068;SDS011;29738;51.234;5.484;2022-12-26T11:27:53;3.58;;;1.95;;
44068;SDS011;29738;51.234;5.484;2022-12-26T11:30:28;4.63;;;1.50;;
44068;SDS011;29738;51.234;5.484;2022-12-26T11:35:33;4.53;;;1.30;;
44068;SDS011;29738;51.234;5.484;2022-12-26T11:38:04;4.30;;;1.58;;
44068;SDS011;29738;51.234;5.484;2022-12-26T11:40:37;4.22;;;1.30;;
44068;SDS011;29738;51.234;5.484;2022-12-26T11:43:23;5.90;;;1.88;;
44068;SDS011;29738;51.234;5.484;2022-12-26T11:45:51;6.80;;;2.13;;
44068;SDS011;29738;51.234;5.484;2022-12-26T11:48:21;4.07;;;1.52;;
44068;SDS011;29738;51.234;5.484;2022-12-26T11:50:49;7.65;;;1.40;;
44068;SDS011;29738;51.234;5.484;2022-12-26T11:53:16;3.88;;;1.63;;
44068;SDS011;29738;51.234;5.484;2022-12-26T11:55:43;5.50;;;1.90;;
44068;SDS011;29738;51.234;5.484;2022-12-26T11:58:21;5.40;;;2.30;;
44068;SDS011;29738;51.234;5.484;2022-12-26T12:03:24;4.45;;;1.95;;
44068;SDS011;29738;51.234;5.484;2022-12-26T12:09:11;8.05;;;2.50;;
44068;SDS011;29738;51.234;5.484;2022-12-26T12:31:17;5.97;;;2.08;;
44068;SDS011;29738;51.234;5.484;2022-12-26T12:33:49;7.28;;;2.35;;
44068;SDS011;29738;51.234;5.484;2022-12-26T12:37:02;4.95;;;1.92;;
44068;SDS011;29738;51.234;5.484;2022-12-26T12:39:37;7.43;;;2.10;;
44068;SDS011;29738;51.234;5.484;2022-12-26T12:47:47;9.02;;;2.22;;
44068;SDS011;29738;51.234;5.484;2022-12-26T12:50:31;10.80;;;2.60;;
44068;SDS011;29738;51.234;5.484;2022-12-26T12:53:11;9.75;;;2.38;;
44068;SDS011;29738;51.234;5.484;2022-12-26T13:01:48;7.40;;;2.08;;
44068;SDS011;29738;51.234;5.484;2022-12-26T13:04:37;5.45;;;1.48;;
44068;SDS011;29738;51.234;5.484;2022-12-26T13:07:11;9.20;;;1.80;;
44068;SDS011;29738;51.234;5.484;2022-12-26T13:09:47;5.72;;;1.83;;
44068;SDS011;29738;51.234;5.484;2022-12-26T13:12:20;6.78;;;1.98;;
44068;SDS011;29738;51.234;5.484;2022-12-26T13:14:50;4.28;;;1.48;;
44068;SDS011;29738;51.234;5.484;2022-12-26T13:17:31;4.10;;;1.38;;
44068;SDS011;29738;51.234;5.484;2022-12-26T13:23:05;9.27;;;1.65;;
44068;SDS011;29738;51.234;5.484;2022-12-26T13:26:04;7.00;;;1.67;;
44068;SDS011;29738;51.234;5.484;2022-12-26T13:28:35;5.82;;;2.03;;
44068;SDS011;29738;51.234;5.484;2022-12-26T13:31:10;5.88;;;1.80;;
44068;SDS011;29738;51.234;5.484;2022-12-26T13:33:36;4.32;;;1.52;;
44068;SDS011;29738;51.234;5.484;2022-12-26T13:36:05;5.93;;;2.35;;
44068;SDS011;29738;51.234;5.484;2022-12-26T13:41:16;7.03;;;2.10;;
44068;SDS011;29738;51.234;5.484;2022-12-26T13:44:02;6.30;;;2.00;;
44068;SDS011;29738;51.234;5.484;2022-12-26T14:00:22;4.20;;;1.90;;
44068;SDS011;29738;51.234;5.484;2022-12-26T14:06:02;4.53;;;1.50;;
44068;SDS011;29738;51.234;5.484;2022-12-26T14:08:47;3.35;;;1.15;;
44068;SDS011;29738;51.234;5.484;2022-12-26T14:13:55;5.47;;;1.58;;
44068;SDS011;29738;51.234;5.484;2022-12-26T14:16:47;5.60;;;1.58;;
44068;SDS011;29738;51.234;5.484;2022-12-26T14:24:30;4.80;;;1.83;;
44068;SDS011;29738;51.234;5.484;2022-12-26T14:27:12;5.13;;;1.90;;
44068;SDS011;29738;51.234;5.484;2022-12-26T14:35:19;4.15;;;1.63;;
44068;SDS011;29738;51.234;5.484;2022-12-26T14:41:00;7.60;;;1.88;;
44068;SDS011;29738;51.234;5.484;2022-12-26T14:43:29;4.70;;;1.65;;
44068;SDS011;29738;51.234;5.484;2022-12-26T14:45:58;8.50;;;2.10;;
44068;SDS011;29738;51.234;5.484;2022-12-26T15:03:42;6.00;;;2.08;;
44068;SDS011;29738;51.234;5.484;2022-12-26T15:27:34;4.60;;;1.77;;
44068;SDS011;29738;51.234;5.484;2022-12-26T15:30:26;3.20;;;1.40;;
44068;SDS011;29738;51.234;5.484;2022-12-26T15:50:55;5.88;;;1.90;;
44068;SDS011;29738;51.234;5.484;2022-12-26T15:58:51;4.68;;;1.65;;
44068;SDS011;29738;51.234;5.484;2022-12-26T16:01:32;5.53;;;1.90;;
44068;SDS011;29738;51.234;5.484;2022-12-26T16:09:49;4.63;;;1.80;;
44068;SDS011;29738;51.234;5.484;2022-12-26T16:12:23;6.30;;;2.05;;
44068;SDS011;29738;51.234;5.484;2022-12-26T16:17:36;7.28;;;2.55;;
44068;SDS011;29738;51.234;5.484;2022-12-26T16:20:17;7.15;;;2.25;;
44068;SDS011;29738;51.234;5.484;2022-12-26T16:23:11;7.95;;;1.95;;
44068;SDS011;29738;51.234;5.484;2022-12-26T16:25:44;8.35;;;2.33;;
44068;SDS011;29738;51.234;5.484;2022-12-26T16:28:14;8.30;;;2.38;;
44068;SDS011;29738;51.234;5.484;2022-12-26T16:30:43;13.73;;;3.20;;
44068;SDS011;29738;51.234;5.484;2022-12-26T16:33:10;7.68;;;3.13;;
44068;SDS011;29738;51.234;5.484;2022-12-26T16:35:39;8.82;;;2.45;;
44068;SDS011;29738;51.234;5.484;2022-12-26T16:38:07;8.45;;;2.33;;
44068;SDS011;29738;51.234;5.484;2022-12-26T16:40:44;9.95;;;3.55;;
44068;SDS011;29738;51.234;5.484;2022-12-26T16:45:44;5.75;;;2.10;;
44068;SDS011;29738;51.234;5.484;2022-12-26T16:48:13;6.75;;;2.97;;
44068;SDS011;29738;51.234;5.484;2022-12-26T16:50:48;3.50;;;1.52;;
44068;SDS011;29738;51.234;5.484;2022-12-26T16:53:23;12.65;;;3.15;;
44068;SDS011;29738;51.234;5.484;2022-12-26T16:55:56;11.15;;;3.53;;
44068;SDS011;29738;51.234;5.484;2022-12-26T16:58:38;8.80;;;3.70;;
44068;SDS011;29738;51.234;5.484;2022-12-26T17:01:09;12.95;;;3.63;;
44068;SDS011;29738;51.234;5.484;2022-12-26T17:06:21;9.98;;;4.38;;
44068;SDS011;29738;51.234;5.484;2022-12-26T17:08:52;10.60;;;3.72;;
44068;SDS011;29738;51.234;5.484;2022-12-26T17:11:30;7.47;;;3.30;;
44068;SDS011;29738;51.234;5.484;2022-12-26T17:14:01;19.50;;;6.75;;
44068;SDS011;29738;51.234;5.484;2022-12-26T17:16:30;22.48;;;7.45;;
44068;SDS011;29738;51.234;5.484;2022-12-26T17:24:38;13.45;;;5.18;;
44068;SDS011;29738;51.234;5.484;2022-12-26T17:27:14;17.30;;;5.80;;
44068;SDS011;29738;51.234;5.484;2022-12-26T17:29:45;11.57;;;3.85;;
44068;SDS011;29738;51.234;5.484;2022-12-26T17:35:05;14.48;;;5.47;;
44068;SDS011;29738;51.234;5.484;2022-12-26T17:37:42;21.70;;;6.60;;
44068;SDS011;29738;51.234;5.484;2022-12-26T17:42:51;19.42;;;5.78;;
44068;SDS011;29738;51.234;5.484;2022-12-26T17:45:23;11.10;;;4.97;;
44068;SDS011;29738;51.234;5.484;2022-12-26T17:47:51;14.48;;;4.50;;
44068;SDS011;29738;51.234;5.484;2022-12-26T17:50:18;15.90;;;5.07;;
44068;SDS011;29738;51.234;5.484;2022-12-26T17:52:45;14.23;;;5.05;;
44068;SDS011;29738;51.234;5.484;2022-12-26T17:55:18;12.73;;;4.57;;
44068;SDS011;29738;51.234;5.484;2022-12-26T17:57:49;17.73;;;5.53;;
44068;SDS011;29738;51.234;5.484;2022-12-26T18:02:43;37.47;;;10.55;;
44068;SDS011;29738;51.234;5.484;2022-12-26T18:05:09;33.92;;;11.00;;
44068;SDS011;29738;51.234;5.484;2022-12-26T18:07:35;15.98;;;5.13;;
44068;SDS011;29738;51.234;5.484;2022-12-26T18:10:01;26.48;;;6.82;;
44068;SDS011;29738;51.234;5.484;2022-12-26T18:12:28;22.05;;;7.80;;
44068;SDS011;29738;51.234;5.484;2022-12-26T18:14:54;24.67;;;8.32;;
44068;SDS011;29738;51.234;5.484;2022-12-26T18:17:19;21.92;;;6.95;;
44068;SDS011;29738;51.234;5.484;2022-12-26T18:19:45;39.20;;;11.95;;
44068;SDS011;29738;51.234;5.484;2022-12-26T18:22:14;32.83;;;12.57;;
44068;SDS011;29738;51.234;5.484;2022-12-26T18:24:42;20.05;;;6.43;;
44068;SDS011;29738;51.234;5.484;2022-12-26T18:27:28;13.23;;;5.97;;
44068;SDS011;29738;51.234;5.484;2022-12-26T18:29:56;20.48;;;6.60;;
44068;SDS011;29738;51.234;5.484;2022-12-26T18:32:23;23.77;;;8.15;;
44068;SDS011;29738;51.234;5.484;2022-12-26T18:34:56;14.48;;;7.40;;
44068;SDS011;29738;51.234;5.484;2022-12-26T18:37:23;19.65;;;6.45;;
44068;SDS011;29738;51.234;5.484;2022-12-26T18:39:51;18.15;;;6.43;;
44068;SDS011;29738;51.234;5.484;2022-12-26T18:42:18;23.38;;;6.72;;
44068;SDS011;29738;51.234;5.484;2022-12-26T18:44:44;20.77;;;6.72;;
44068;SDS011;29738;51.234;5.484;2022-12-26T18:47:17;28.25;;;8.73;;
44068;SDS011;29738;51.234;5.484;2022-12-26T18:49:44;13.68;;;7.18;;
44068;SDS011;29738;51.234;5.484;2022-12-26T18:52:11;25.13;;;7.93;;
44068;SDS011;29738;51.234;5.484;2022-12-26T18:54:37;15.23;;;7.80;;
44068;SDS011;29738;51.234;5.484;2022-12-26T18:57:04;19.10;;;6.50;;
44068;SDS011;29738;51.234;5.484;2022-12-26T18:59:31;18.52;;;7.97;;
44068;SDS011;29738;51.234;5.484;2022-12-26T19:01:58;18.08;;;6.90;;
44068;SDS011;29738;51.234;5.484;2022-12-26T19:04:24;17.42;;;7.03;;
44068;SDS011;29738;51.234;5.484;2022-12-26T19:06:52;17.80;;;6.97;;